createdAt,value
2023-09-06T00:00:30.996Z,2.15
2023-09-06T00:02:57.940Z,1.30
2023-09-06T00:05:24.849Z,2.35
2023-09-06T00:07:51.309Z,2.67
2023-09-06T00:10:19.495Z,2.55
2023-09-06T00:12:48.460Z,2.22
2023-09-06T00:15:15.308Z,1.35
2023-09-06T00:17:42.535Z,1.90
2023-09-06T00:20:21.541Z,2.17
2023-09-06T00:22:56.131Z,2.10
2023-09-06T00:25:23.092Z,2.35
2023-09-06T00:27:51.352Z,1.58
2023-09-06T00:30:21.540Z,2.20
2023-09-06T00:32:51.707Z,2.20
2023-09-06T00:35:18.242Z,1.55
2023-09-06T00:37:44.752Z,2.03
2023-09-06T00:40:22.429Z,1.73
2023-09-06T00:42:49.910Z,2.15
2023-09-06T00:45:16.742Z,1.70
2023-09-06T00:47:44.031Z,2.28
2023-09-06T00:50:15.452Z,1.92
2023-09-06T00:52:42.902Z,2.00
2023-09-06T00:55:10.116Z,2.20
2023-09-06T00:57:36.845Z,2.25
2023-09-06T01:00:10.628Z,2.47
2023-09-06T01:02:39.759Z,2.13
2023-09-06T01:05:06.687Z,1.23
2023-09-06T01:07:38.072Z,2.28
2023-09-06T01:10:05.308Z,1.42
2023-09-06T01:12:32.136Z,1.70
2023-09-06T01:14:59.822Z,2.75
2023-09-06T01:17:29.092Z,2.42
2023-09-06T01:20:16.576Z,1.73
2023-09-06T01:22:54.915Z,2.45
2023-09-06T01:25:21.803Z,1.75
2023-09-06T01:27:48.506Z,1.83
2023-09-06T01:30:15.380Z,2.28
2023-09-06T01:32:42.197Z,2.15
2023-09-06T01:35:11.553Z,1.75
2023-09-06T01:37:38.487Z,1.58
2023-09-06T01:40:16.830Z,1.30
2023-09-06T01:42:44.177Z,2.28
2023-09-06T01:45:10.916Z,1.33
2023-09-06T01:47:37.479Z,1.70
2023-09-06T01:50:05.578Z,1.98
2023-09-06T01:52:32.167Z,2.40
2023-09-06T01:55:01.265Z,2.50
2023-09-06T01:57:27.709Z,2.08
2023-09-06T01:59:54.149Z,1.92
2023-09-06T02:02:23.099Z,2.33
2023-09-06T02:04:49.523Z,2.53
2023-09-06T02:07:16.247Z,1.85
2023-09-06T02:09:42.822Z,2.42
2023-09-06T02:12:09.309Z,1.88
2023-09-06T02:14:35.727Z,2.00
2023-09-06T02:17:02.611Z,2.17
2023-09-06T02:19:29.025Z,2.45
2023-09-06T02:21:55.425Z,2.50
2023-09-06T02:24:21.852Z,2.72
2023-09-06T02:26:48.275Z,2.47
2023-09-06T02:29:15.320Z,1.90
2023-09-06T02:31:41.882Z,2.42
2023-09-06T02:34:10.812Z,1.88
2023-09-06T02:36:37.403Z,1.42
2023-09-06T02:39:04.064Z,2.33
2023-09-06T02:41:31.002Z,1.60
2023-09-06T02:43:57.377Z,2.33
2023-09-06T02:46:27.925Z,2.20
2023-09-06T02:48:54.346Z,2.17
2023-09-06T02:51:20.882Z,2.38
2023-09-06T02:53:47.371Z,1.45
2023-09-06T02:56:17.349Z,2.30
2023-09-06T02:58:44.336Z,2.03
2023-09-06T03:01:20.578Z,1.92
2023-09-06T03:03:49.217Z,1.55
2023-09-06T03:06:33.553Z,1.60
2023-09-06T03:09:01.253Z,1.38
2023-09-06T03:11:27.734Z,2.35
2023-09-06T03:13:56.496Z,2.05
2023-09-06T03:16:23.533Z,1.67
2023-09-06T03:18:55.176Z,1.20
2023-09-06T03:21:22.599Z,2.50
2023-09-06T03:23:50.152Z,1.77
2023-09-06T03:26:16.629Z,2.00
2023-09-06T03:28:45.866Z,2.05
2023-09-06T03:31:14.215Z,1.27
2023-09-06T03:33:41.040Z,2.45
2023-09-06T03:36:10.892Z,1.73
2023-09-06T03:38:37.633Z,1.17
2023-09-06T03:41:08.382Z,2.50
2023-09-06T03:43:35.260Z,1.40
2023-09-06T03:46:06.044Z,2.10
2023-09-06T03:48:33.145Z,1.88
2023-09-06T03:51:00.947Z,1.10
2023-09-06T03:53:29.770Z,2.00
2023-09-06T03:55:58.891Z,1.13
2023-09-06T03:58:26.532Z,1.23
2023-09-06T04:00:54.017Z,1.92
2023-09-06T04:03:21.520Z,1.63
2023-09-06T04:05:48.125Z,1.17
2023-09-06T04:08:20.905Z,2.03
2023-09-06T04:10:47.695Z,1.45
2023-09-06T04:13:15.458Z,1.58
2023-09-06T04:15:45.174Z,1.55
2023-09-06T04:18:13.184Z,1.35
2023-09-06T04:20:45.780Z,1.55
2023-09-06T04:23:14.213Z,2.17
2023-09-06T04:25:48.044Z,2.13
2023-09-06T04:28:16.625Z,1.90
2023-09-06T04:30:47.166Z,2.17
2023-09-06T04:33:15.456Z,1.27
2023-09-06T04:35:45.531Z,2.22
2023-09-06T04:38:13.690Z,1.98
2023-09-06T04:40:40.374Z,2.13
2023-09-06T04:43:08.517Z,1.70
2023-09-06T04:45:38.594Z,2.08
2023-09-06T04:48:13.487Z,1.35
2023-09-06T04:50:41.616Z,1.63
2023-09-06T04:53:09.696Z,1.58
2023-09-06T04:55:37.079Z,2.58
2023-09-06T04:58:04.479Z,2.13
2023-09-06T05:00:38.225Z,2.60
2023-09-06T05:03:09.596Z,2.03
2023-09-06T05:05:36.817Z,2.40
2023-09-06T05:08:04.340Z,2.25
2023-09-06T05:10:31.679Z,1.75
2023-09-06T05:12:58.412Z,1.85
2023-09-06T05:15:24.848Z,2.03
2023-09-06T05:17:51.304Z,1.80
2023-09-06T05:20:23.787Z,2.72
2023-09-06T05:22:50.152Z,2.83
2023-09-06T05:25:16.709Z,1.85
2023-09-06T05:27:43.110Z,2.58
2023-09-06T05:30:10.049Z,2.03
2023-09-06T05:32:36.497Z,2.25
2023-09-06T05:35:04.647Z,2.00
2023-09-06T05:37:31.078Z,1.65
2023-09-06T05:39:57.547Z,2.25
2023-09-06T05:42:23.994Z,1.92
2023-09-06T05:44:50.493Z,2.92
2023-09-06T05:47:16.958Z,2.35
2023-09-06T05:49:43.948Z,1.70
2023-09-06T05:52:13.120Z,2.05
2023-09-06T05:54:39.462Z,2.70
2023-09-06T05:57:06.658Z,1.80
2023-09-06T05:59:33.097Z,2.00
2023-09-06T06:01:59.597Z,1.70
2023-09-06T06:04:26.666Z,1.60
2023-09-06T06:06:53.198Z,2.03
2023-09-06T06:09:22.918Z,2.05
2023-09-06T06:11:49.437Z,1.98
2023-09-06T06:14:16.039Z,1.75
2023-09-06T06:16:45.612Z,1.88
2023-09-06T06:19:13.856Z,1.80
2023-09-06T06:21:40.892Z,1.90
2023-09-06T06:24:10.780Z,1.60
2023-09-06T06:26:37.202Z,1.90
2023-09-06T06:29:03.845Z,1.70
2023-09-06T06:31:30.524Z,1.80
2023-09-06T06:33:57.504Z,1.50
2023-09-06T06:36:24.199Z,1.23
2023-09-06T06:38:50.628Z,1.80
2023-09-06T06:41:23.829Z,1.63
2023-09-06T06:43:50.801Z,1.95
2023-09-06T06:46:28.063Z,1.60
2023-09-06T06:48:55.413Z,1.67
2023-09-06T06:51:22.494Z,1.98
2023-09-06T06:53:48.973Z,1.70
2023-09-06T06:56:24.050Z,1.98
2023-09-06T07:01:17.713Z,1.88
2023-09-06T07:03:44.364Z,1.75
2023-09-06T07:06:10.882Z,1.35
2023-09-06T07:08:40.340Z,1.60
2023-09-06T07:11:08.144Z,1.10
2023-09-06T07:13:37.826Z,1.50
2023-09-06T07:16:04.634Z,1.25
2023-09-06T07:18:39.595Z,1.38
2023-09-06T07:21:07.771Z,1.52
2023-09-06T07:23:37.329Z,1.33
2023-09-06T07:26:05.349Z,1.38
2023-09-06T07:28:40.164Z,1.40
2023-09-06T07:31:07.661Z,1.08
2023-09-06T07:33:34.829Z,1.30
2023-09-06T07:36:01.637Z,1.17
2023-09-06T07:38:28.418Z,1.58
2023-09-06T07:41:04.167Z,1.45
2023-09-06T07:43:31.188Z,1.20
2023-09-06T07:45:58.894Z,1.30
2023-09-06T07:48:30.992Z,1.52
2023-09-06T07:50:59.246Z,1.60
2023-09-06T07:53:27.091Z,1.27
2023-09-06T07:56:04.947Z,1.40
2023-09-06T07:58:31.960Z,1.40
2023-09-06T08:03:34.757Z,1.52
2023-09-06T08:06:04.535Z,1.63
2023-09-06T08:08:34.124Z,1.75
2023-09-06T08:11:05.256Z,1.00
2023-09-06T08:13:31.985Z,1.38
2023-09-06T08:15:58.697Z,1.20
2023-09-06T08:18:30.061Z,1.10
2023-09-06T08:21:09.896Z,1.42
2023-09-06T08:23:38.680Z,1.30
2023-09-06T08:26:05.372Z,1.58
2023-09-06T08:28:36.779Z,1.25
2023-09-06T08:31:07.866Z,1.60
2023-09-06T08:33:41.072Z,1.38
2023-09-06T08:36:15.963Z,1.25
2023-09-06T08:38:49.024Z,1.58
2023-09-06T08:41:30.411Z,1.55
2023-09-06T08:44:04.837Z,1.40
2023-09-06T08:46:34.554Z,1.23
2023-09-06T08:49:09.102Z,1.20
2023-09-06T08:51:40.373Z,1.35
2023-09-06T08:54:14.843Z,1.60
2023-09-06T08:56:41.656Z,1.40
2023-09-06T08:59:12.903Z,1.88
2023-09-06T09:01:39.665Z,1.38
2023-09-06T09:04:06.689Z,1.38
2023-09-06T09:06:33.428Z,1.60
2023-09-06T09:09:17.610Z,1.30
2023-09-06T09:11:54.230Z,1.23
2023-09-06T09:14:28.676Z,1.35
2023-09-06T09:17:00.105Z,1.98
2023-09-06T09:19:37.149Z,1.40
2023-09-06T09:22:09.481Z,1.48
2023-09-06T09:24:38.646Z,1.50
2023-09-06T09:27:06.928Z,1.30
2023-09-06T09:29:33.590Z,1.60
2023-09-06T09:32:04.929Z,1.23
2023-09-06T09:34:32.267Z,2.13
2023-09-06T09:36:59.153Z,1.40
2023-09-06T09:39:28.921Z,1.48
2023-09-06T09:42:00.157Z,1.35
2023-09-06T09:44:27.312Z,1.27
2023-09-06T09:47:04.009Z,1.23
2023-09-06T09:49:43.288Z,1.27
2023-09-06T09:52:13.420Z,1.60
2023-09-06T09:54:49.079Z,1.48
2023-09-06T09:57:23.740Z,1.65
2023-09-06T09:59:53.108Z,1.55
2023-09-06T10:02:40.187Z,1.63
2023-09-06T10:05:10.144Z,1.67
2023-09-06T10:07:49.127Z,1.70
2023-09-06T10:10:21.062Z,1.30
2023-09-06T10:12:53.872Z,1.40
2023-09-06T10:15:24.537Z,1.60
2023-09-06T10:17:55.328Z,1.10
2023-09-06T10:20:39.220Z,1.52
2023-09-06T10:23:08.064Z,1.85
2023-09-06T10:25:42.560Z,1.23
2023-09-06T10:28:15.232Z,1.67
2023-09-06T10:30:50.114Z,1.52
2023-09-06T10:33:37.641Z,1.58
2023-09-06T10:36:17.626Z,1.80
2023-09-06T10:38:53.676Z,1.27
2023-09-06T10:41:23.919Z,1.90
2023-09-06T10:44:01.938Z,1.30
2023-09-06T10:46:35.770Z,1.63
2023-09-06T10:49:15.381Z,1.42
2023-09-06T10:52:26.491Z,1.20
2023-09-06T10:54:54.551Z,1.20
2023-09-06T10:57:21.992Z,1.48
2023-09-06T11:00:18.455Z,1.50
2023-09-06T11:02:45.524Z,1.65
2023-09-06T11:05:32.356Z,1.45
2023-09-06T11:07:59.197Z,1.60
2023-09-06T11:10:28.408Z,1.50
2023-09-06T11:13:08.454Z,1.80
2023-09-06T11:15:42.604Z,2.03
2023-09-06T11:18:11.785Z,1.30
2023-09-06T11:20:40.987Z,1.73
2023-09-06T11:23:09.818Z,1.50
2023-09-06T11:25:39.104Z,1.40
2023-09-06T11:28:20.408Z,1.30
2023-09-06T11:31:04.782Z,1.30
2023-09-06T11:33:43.620Z,1.58
2023-09-06T11:36:12.370Z,1.17
2023-09-06T11:38:41.732Z,1.60
2023-09-06T11:41:10.286Z,1.58
2023-09-06T11:43:42.801Z,1.40
2023-09-06T11:46:19.024Z,1.73
2023-09-06T11:48:46.006Z,1.80
2023-09-06T11:51:14.795Z,1.63
2023-09-06T11:53:49.710Z,1.30
2023-09-06T11:56:21.676Z,1.25
2023-09-06T11:58:50.963Z,1.70
2023-09-06T12:01:27.612Z,1.40
2023-09-06T12:03:57.708Z,1.35
2023-09-06T12:06:30.607Z,1.60
2023-09-06T12:08:57.704Z,1.42
2023-09-06T12:11:28.686Z,1.23
2023-09-06T12:13:55.589Z,1.13
2023-09-06T12:16:24.755Z,1.48
2023-09-06T12:18:51.636Z,1.50
2023-09-06T12:21:22.458Z,1.30
2023-09-06T12:23:51.634Z,1.33
2023-09-06T12:26:20.037Z,1.33
2023-09-06T12:31:17.932Z,1.90
2023-09-06T12:33:49.197Z,1.30
2023-09-06T12:36:18.667Z,1.50
2023-09-06T12:38:48.765Z,1.50
2023-09-06T12:41:17.729Z,1.40
2023-09-06T12:43:44.237Z,1.50
2023-09-06T12:46:13.509Z,1.98
2023-09-06T12:48:42.437Z,1.77
2023-09-06T12:51:09.132Z,1.48
2023-09-06T12:53:36.578Z,1.45
2023-09-06T12:56:04.140Z,1.08
2023-09-06T12:58:31.468Z,1.73
2023-09-06T13:00:59.053Z,1.45
2023-09-06T13:03:27.570Z,1.60
2023-09-06T13:05:59.399Z,0.98
2023-09-06T13:08:28.927Z,1.20
2023-09-06T13:10:55.791Z,1.10
2023-09-06T13:13:22.302Z,1.92
2023-09-06T13:15:48.884Z,1.30
2023-09-06T13:18:20.400Z,1.15
2023-09-06T13:20:47.142Z,1.00
2023-09-06T13:23:16.772Z,1.42
2023-09-06T13:25:43.512Z,1.42
2023-09-06T13:28:10.096Z,1.10
2023-09-06T13:30:37.104Z,1.25
2023-09-06T13:33:06.802Z,1.40
2023-09-06T13:35:33.607Z,1.10
2023-09-06T13:38:02.797Z,1.05
2023-09-06T13:40:35.715Z,0.98
2023-09-06T13:43:03.024Z,1.30
2023-09-06T13:45:30.700Z,0.90
2023-09-06T13:48:00.380Z,1.00
2023-09-06T13:50:29.226Z,1.00
2023-09-06T13:52:56.083Z,1.17
2023-09-06T13:55:22.966Z,1.13
2023-09-06T13:57:52.727Z,1.05
2023-09-06T14:00:28.274Z,1.33
2023-09-06T14:03:00.609Z,1.15
2023-09-06T14:05:31.054Z,1.10
2023-09-06T14:08:00.373Z,1.38
2023-09-06T14:10:29.765Z,1.13
2023-09-06T14:12:56.736Z,1.13
2023-09-06T14:15:29.471Z,1.10
2023-09-06T14:17:59.651Z,1.00
2023-09-06T14:20:26.890Z,0.95
2023-09-06T14:23:00.286Z,1.00
2023-09-06T14:25:27.248Z,1.10
2023-09-06T14:27:54.135Z,0.80
2023-09-06T14:30:23.019Z,0.77
2023-09-06T14:32:50.845Z,1.00
2023-09-06T14:35:17.805Z,0.90
2023-09-06T14:37:47.727Z,0.93
2023-09-06T14:40:15.320Z,0.90
2023-09-06T14:42:44.094Z,0.73
2023-09-06T14:45:13.026Z,1.02
2023-09-06T14:47:41.240Z,1.40
2023-09-06T14:50:11.148Z,1.00
2023-09-06T14:52:41.074Z,1.00
2023-09-06T14:55:08.145Z,1.02
2023-09-06T14:57:37.382Z,0.90
2023-09-06T15:00:05.615Z,1.10
2023-09-06T15:02:32.341Z,1.10
2023-09-06T15:04:59.069Z,1.13
2023-09-06T15:07:25.850Z,0.93
2023-09-06T15:09:52.516Z,0.98
2023-09-06T15:12:19.296Z,1.10
2023-09-06T15:14:49.326Z,0.95
2023-09-06T15:17:16.683Z,0.90
2023-09-06T15:19:43.257Z,0.80
2023-09-06T15:22:17.355Z,0.90
2023-09-06T15:24:58.288Z,1.00
2023-09-06T15:27:38.196Z,1.55
2023-09-06T15:30:10.013Z,1.00
2023-09-06T15:32:37.859Z,1.00
2023-09-06T15:35:10.183Z,1.10
2023-09-06T15:37:44.238Z,0.90
2023-09-06T15:40:15.578Z,0.85
2023-09-06T15:42:45.915Z,0.80
2023-09-06T15:45:13.204Z,0.98
2023-09-06T15:47:47.627Z,0.82
2023-09-06T15:50:16.666Z,0.90
2023-09-06T15:52:52.487Z,0.70
2023-09-06T15:55:20.930Z,0.85
2023-09-06T15:57:50.724Z,1.10
2023-09-06T16:00:32.956Z,0.95
2023-09-06T16:03:00.538Z,0.73
2023-09-06T16:05:27.878Z,0.95
2023-09-06T16:07:54.851Z,0.90
2023-09-06T16:10:27.495Z,0.85
2023-09-06T16:12:54.609Z,0.82
2023-09-06T16:15:26.747Z,0.98
2023-09-06T16:17:54.979Z,0.98
2023-09-06T16:22:49.506Z,1.00
2023-09-06T16:25:24.540Z,1.00
2023-09-06T16:27:51.283Z,0.90
2023-09-06T16:30:20.288Z,1.00
2023-09-06T16:32:50.141Z,1.23
2023-09-06T16:35:20.460Z,0.90
2023-09-06T16:37:55.920Z,0.80
2023-09-06T16:40:23.545Z,1.17
2023-09-06T16:42:53.756Z,0.82
2023-09-06T16:45:22.791Z,0.90
2023-09-06T16:47:51.453Z,1.38
2023-09-06T16:50:21.493Z,0.75
2023-09-06T16:52:51.652Z,0.68
2023-09-06T16:55:20.404Z,1.15
2023-09-06T16:57:50.215Z,1.13
2023-09-06T17:00:19.326Z,1.13
2023-09-06T17:02:48.648Z,0.90
2023-09-06T17:05:15.325Z,0.98
2023-09-06T17:07:45.804Z,1.05
2023-09-06T17:10:16.190Z,1.10
2023-09-06T17:12:48.909Z,1.10
2023-09-06T17:15:20.674Z,0.90
2023-09-06T17:17:48.509Z,1.10
2023-09-06T17:20:16.561Z,0.88
2023-09-06T17:22:45.553Z,1.30
2023-09-06T17:25:13.040Z,0.95
2023-09-06T17:27:42.992Z,1.02
2023-09-06T17:30:11.348Z,1.05
2023-09-06T17:32:41.927Z,1.02
2023-09-06T17:35:10.238Z,1.20
2023-09-06T17:37:37.673Z,1.20
2023-09-06T17:40:11.718Z,1.08
2023-09-06T17:42:41.743Z,0.98
2023-09-06T17:45:13.538Z,1.00
2023-09-06T17:47:42.922Z,1.30
2023-09-06T17:50:10.663Z,1.30
2023-09-06T17:52:40.355Z,0.93
2023-09-06T17:55:07.752Z,0.90
2023-09-06T17:57:34.447Z,1.52
2023-09-06T18:00:01.040Z,1.20
2023-09-06T18:02:28.455Z,1.40
2023-09-06T18:04:57.849Z,1.42
2023-09-06T18:07:24.404Z,1.27
2023-09-06T18:09:53.262Z,1.25
2023-09-06T18:12:21.530Z,1.60
2023-09-06T18:14:50.624Z,1.30
2023-09-06T18:17:17.206Z,1.05
2023-09-06T18:19:46.501Z,1.40
2023-09-06T18:22:13.561Z,1.48
2023-09-06T18:24:43.044Z,1.35
2023-09-06T18:27:10.597Z,1.30
2023-09-06T18:29:40.008Z,1.27
2023-09-06T18:32:07.542Z,1.58
2023-09-06T18:34:34.285Z,1.38
2023-09-06T18:37:00.829Z,1.38
2023-09-06T18:39:27.622Z,1.60
2023-09-06T18:41:54.017Z,1.20
2023-09-06T18:44:23.003Z,1.65
2023-09-06T18:46:49.529Z,1.50
2023-09-06T18:49:15.996Z,1.25
2023-09-06T18:51:42.446Z,1.15
2023-09-06T18:54:08.885Z,1.52
2023-09-06T18:56:35.652Z,1.70
2023-09-06T18:59:02.156Z,1.75
2023-09-06T19:01:29.123Z,1.52
2023-09-06T19:03:55.692Z,1.88
2023-09-06T19:06:22.245Z,1.60
2023-09-06T19:08:48.797Z,1.45
2023-09-06T19:11:15.395Z,1.60
2023-09-06T19:13:41.906Z,1.70
2023-09-06T19:16:11.318Z,1.75
2023-09-06T19:18:39.183Z,1.80
2023-09-06T19:21:05.835Z,1.80
2023-09-06T19:23:32.743Z,1.52
2023-09-06T19:25:59.367Z,1.60
2023-09-06T19:28:26.467Z,1.20
2023-09-06T19:30:58.587Z,2.25
2023-09-06T19:33:26.696Z,1.70
2023-09-06T19:35:54.590Z,1.50
2023-09-06T19:38:23.334Z,1.92
2023-09-06T19:40:51.967Z,1.85
2023-09-06T19:43:19.758Z,2.20
2023-09-06T19:45:49.588Z,1.80
2023-09-06T19:48:17.659Z,2.03
2023-09-06T19:50:48.052Z,3.03
2023-09-06T19:53:14.569Z,1.75
2023-09-06T19:55:41.170Z,1.90
2023-09-06T19:58:11.769Z,2.03
2023-09-06T20:00:38.230Z,1.75
2023-09-06T20:03:04.918Z,2.33
2023-09-06T20:05:31.494Z,1.65
2023-09-06T20:07:57.952Z,2.55
2023-09-06T20:10:24.437Z,2.05
2023-09-06T20:12:52.048Z,2.25
2023-09-06T20:15:19.281Z,2.13
2023-09-06T20:17:45.790Z,1.83
2023-09-06T20:20:12.423Z,2.25
2023-09-06T20:22:38.940Z,2.30
2023-09-06T20:25:06.285Z,2.33
2023-09-06T20:27:32.706Z,1.98
2023-09-06T20:29:59.310Z,1.50
2023-09-06T20:32:25.807Z,1.80
2023-09-06T20:34:52.232Z,1.98
2023-09-06T20:37:18.609Z,2.42
2023-09-06T20:39:45.529Z,2.10
2023-09-06T20:42:12.033Z,1.90
2023-09-06T20:44:41.455Z,2.13
2023-09-06T20:47:07.880Z,2.30
2023-09-06T20:49:37.277Z,1.83
2023-09-06T20:52:03.979Z,1.77
2023-09-06T20:54:30.443Z,2.47
2023-09-06T20:56:56.909Z,2.15
2023-09-06T20:59:23.408Z,2.47
2023-09-06T21:01:49.957Z,2.03
2023-09-06T21:04:16.578Z,2.05
2023-09-06T21:06:43.129Z,2.13
2023-09-06T21:09:13.294Z,2.05
2023-09-06T21:11:41.103Z,3.05
2023-09-06T21:14:08.859Z,2.10
2023-09-06T21:16:35.266Z,2.75
2023-09-06T21:19:01.658Z,2.83
2023-09-06T21:21:28.049Z,2.38
2023-09-06T21:23:54.590Z,2.50
2023-09-06T21:26:21.018Z,2.97
2023-09-06T21:28:50.721Z,2.80
2023-09-06T21:31:17.154Z,1.90
2023-09-06T21:33:43.672Z,2.20
2023-09-06T21:36:10.175Z,2.22
2023-09-06T21:38:36.841Z,1.88
2023-09-06T21:41:03.348Z,2.30
2023-09-06T21:43:31.826Z,2.70
2023-09-06T21:46:00.045Z,2.17
2023-09-06T21:48:27.934Z,1.88
2023-09-06T21:51:07.483Z,2.67
2023-09-06T21:53:34.044Z,2.42
2023-09-06T21:56:00.462Z,3.17
2023-09-06T21:58:26.844Z,3.15
2023-09-06T22:00:54.397Z,3.05
2023-09-06T22:03:21.377Z,2.90
2023-09-06T22:05:49.730Z,1.92
2023-09-06T22:08:16.116Z,3.22
2023-09-06T22:10:42.504Z,2.50
2023-09-06T22:13:09.049Z,2.30
2023-09-06T22:15:35.630Z,3.33
2023-09-06T22:18:05.237Z,2.97
2023-09-06T22:20:34.426Z,2.90
2023-09-06T22:23:01.475Z,2.35
2023-09-06T22:25:28.532Z,2.90
2023-09-06T22:27:55.147Z,3.50
2023-09-06T22:30:21.658Z,1.92
2023-09-06T22:32:48.135Z,2.60
2023-09-06T22:35:14.584Z,2.72
2023-09-06T22:37:42.527Z,2.97
2023-09-06T22:40:09.690Z,3.00
2023-09-06T22:42:36.207Z,3.10
2023-09-06T22:45:03.333Z,3.13
2023-09-06T22:47:29.858Z,2.53
2023-09-06T22:49:56.434Z,3.47
2023-09-06T22:52:24.012Z,3.15
2023-09-06T22:54:50.692Z,3.35
2023-09-06T22:57:20.344Z,2.75
2023-09-06T22:59:49.255Z,2.35
2023-09-06T23:02:15.661Z,3.00
2023-09-06T23:04:42.746Z,3.10
2023-09-06T23:07:09.251Z,2.78
2023-09-06T23:09:35.781Z,3.22
2023-09-06T23:12:02.340Z,2.40
2023-09-06T23:14:29.015Z,3.20
2023-09-06T23:16:55.631Z,2.30
2023-09-06T23:19:28.192Z,2.90
2023-09-06T23:21:59.451Z,2.63
2023-09-06T23:24:26.154Z,2.08
2023-09-06T23:26:59.334Z,3.55
2023-09-06T23:29:28.556Z,3.60
2023-09-06T23:31:55.455Z,2.28
2023-09-06T23:34:28.320Z,2.00
2023-09-06T23:36:57.408Z,3.58
2023-09-06T23:41:58.797Z,2.80
2023-09-06T23:44:27.718Z,3.28
2023-09-06T23:46:57.469Z,3.20
2023-09-06T23:49:24.170Z,3.08
2023-09-06T23:51:53.594Z,3.55
2023-09-06T23:54:29.897Z,2.75
2023-09-06T23:57:05.147Z,2.78
2023-09-06T23:59:31.548Z,3.30
